sensor_id;sensor_type;location;lat;lon;timestamp;P1;durP1;ratioP1;P2;durP2;ratioP2
54795;SDS011;40693;43.884;20.340;2022-08-01T00:01:53;5.28;;;2.70;;
54795;SDS011;40693;43.884;20.340;2022-08-01T00:04:18;5.38;;;2.42;;
54795;SDS011;40693;43.884;20.340;2022-08-01T00:06:44;3.90;;;2.60;;
54795;SDS011;40693;43.884;20.340;2022-08-01T00:09:10;5.65;;;3.58;;
54795;SDS011;40693;43.884;20.340;2022-08-01T00:11:36;5.22;;;2.35;;
54795;SDS011;40693;43.884;20.340;2022-08-01T00:14:02;2.72;;;1.85;;
54795;SDS011;40693;43.884;20.340;2022-08-01T00:16:28;3.53;;;2.20;;
54795;SDS011;40693;43.884;20.340;2022-08-01T00:18:54;3.47;;;2.45;;
54795;SDS011;40693;43.884;20.340;2022-08-01T00:21:20;4.63;;;2.40;;
54795;SDS011;40693;43.884;20.340;2022-08-01T00:23:46;4.40;;;2.92;;
54795;SDS011;40693;43.884;20.340;2022-08-01T00:26:12;3.85;;;2.60;;
54795;SDS011;40693;43.884;20.340;2022-08-01T00:28:39;4.15;;;2.33;;
54795;SDS011;40693;43.884;20.340;2022-08-01T00:31:05;2.83;;;2.28;;
54795;SDS011;40693;43.884;20.340;2022-08-01T00:33:31;3.78;;;2.40;;
54795;SDS011;40693;43.884;20.340;2022-08-01T00:35:57;3.22;;;2.20;;
54795;SDS011;40693;43.884;20.340;2022-08-01T00:38:23;3.25;;;2.50;;
54795;SDS011;40693;43.884;20.340;2022-08-01T00:40:49;5.53;;;2.42;;
54795;SDS011;40693;43.884;20.340;2022-08-01T00:43:15;2.92;;;2.15;;
54795;SDS011;40693;43.884;20.340;2022-08-01T00:45:41;4.88;;;2.65;;
54795;SDS011;40693;43.884;20.340;2022-08-01T00:48:06;3.40;;;2.47;;
54795;SDS011;40693;43.884;20.340;2022-08-01T00:50:32;6.35;;;2.47;;
54795;SDS011;40693;43.884;20.340;2022-08-01T00:52:59;4.65;;;2.50;;
54795;SDS011;40693;43.884;20.340;2022-08-01T00:55:26;3.03;;;2.50;;
54795;SDS011;40693;43.884;20.340;2022-08-01T00:57:52;4.65;;;2.30;;
54795;SDS011;40693;43.884;20.340;2022-08-01T01:00:19;5.32;;;2.33;;
54795;SDS011;40693;43.884;20.340;2022-08-01T01:02:45;5.35;;;3.25;;
54795;SDS011;40693;43.884;20.340;2022-08-01T01:05:11;3.03;;;2.53;;
54795;SDS011;40693;43.884;20.340;2022-08-01T01:13:41;5.93;;;2.65;;
54795;SDS011;40693;43.884;20.340;2022-08-01T01:16:11;5.85;;;2.67;;
54795;SDS011;40693;43.884;20.340;2022-08-01T01:27:01;4.70;;;2.90;;
54795;SDS011;40693;43.884;20.340;2022-08-01T01:32:18;4.03;;;2.10;;
54795;SDS011;40693;43.884;20.340;2022-08-01T01:34:49;4.60;;;2.00;;
54795;SDS011;40693;43.884;20.340;2022-08-01T01:37:19;4.25;;;2.40;;
54795;SDS011;40693;43.884;20.340;2022-08-01T01:39:48;3.80;;;2.08;;
54795;SDS011;40693;43.884;20.340;2022-08-01T01:42:16;4.28;;;2.30;;
54795;SDS011;40693;43.884;20.340;2022-08-01T01:44:43;4.53;;;2.90;;
54795;SDS011;40693;43.884;20.340;2022-08-01T01:47:13;3.65;;;2.65;;
54795;SDS011;40693;43.884;20.340;2022-08-01T01:49:41;4.07;;;2.53;;
54795;SDS011;40693;43.884;20.340;2022-08-01T01:52:11;3.53;;;2.70;;
54795;SDS011;40693;43.884;20.340;2022-08-01T01:54:40;3.25;;;2.40;;
54795;SDS011;40693;43.884;20.340;2022-08-01T01:57:11;2.80;;;2.53;;
54795;SDS011;40693;43.884;20.340;2022-08-01T01:59:38;2.92;;;2.60;;
54795;SDS011;40693;43.884;20.340;2022-08-01T02:02:05;3.95;;;2.30;;
54795;SDS011;40693;43.884;20.340;2022-08-01T02:04:33;5.68;;;2.72;;
54795;SDS011;40693;43.884;20.340;2022-08-01T02:07:02;4.10;;;2.67;;
54795;SDS011;40693;43.884;20.340;2022-08-01T02:09:29;5.65;;;2.85;;
54795;SDS011;40693;43.884;20.340;2022-08-01T02:11:57;4.30;;;2.97;;
54795;SDS011;40693;43.884;20.340;2022-08-01T02:14:24;8.10;;;3.45;;
54795;SDS011;40693;43.884;20.340;2022-08-01T02:16:54;9.18;;;4.07;;
54795;SDS011;40693;43.884;20.340;2022-08-01T02:19:22;5.70;;;3.77;;
54795;SDS011;40693;43.884;20.340;2022-08-01T02:22:00;4.35;;;3.40;;
54795;SDS011;40693;43.884;20.340;2022-08-01T02:24:44;5.90;;;3.20;;
54795;SDS011;40693;43.884;20.340;2022-08-01T02:27:30;7.70;;;4.03;;
54795;SDS011;40693;43.884;20.340;2022-08-01T02:30:02;6.82;;;3.65;;
54795;SDS011;40693;43.884;20.340;2022-08-01T02:32:51;7.18;;;4.10;;
54795;SDS011;40693;43.884;20.340;2022-08-01T02:35:28;6.50;;;4.00;;
54795;SDS011;40693;43.884;20.340;2022-08-01T02:37:58;7.93;;;3.85;;
54795;SDS011;40693;43.884;20.340;2022-08-01T02:40:26;9.13;;;3.97;;
54795;SDS011;40693;43.884;20.340;2022-08-01T02:42:54;5.53;;;3.72;;
54795;SDS011;40693;43.884;20.340;2022-08-01T02:45:22;7.88;;;4.03;;
54795;SDS011;40693;43.884;20.340;2022-08-01T02:47:50;8.05;;;3.90;;
54795;SDS011;40693;43.884;20.340;2022-08-01T02:50:20;6.63;;;4.50;;
54795;SDS011;40693;43.884;20.340;2022-08-01T02:52:49;7.65;;;3.80;;
54795;SDS011;40693;43.884;20.340;2022-08-01T02:55:17;6.10;;;4.82;;
54795;SDS011;40693;43.884;20.340;2022-08-01T02:57:44;5.32;;;3.78;;
54795;SDS011;40693;43.884;20.340;2022-08-01T03:00:13;5.57;;;3.85;;
54795;SDS011;40693;43.884;20.340;2022-08-01T03:02:41;5.25;;;3.50;;
54795;SDS011;40693;43.884;20.340;2022-08-01T03:05:10;7.57;;;3.65;;
54795;SDS011;40693;43.884;20.340;2022-08-01T03:07:40;5.80;;;4.00;;
54795;SDS011;40693;43.884;20.340;2022-08-01T03:10:07;7.25;;;4.20;;
54795;SDS011;40693;43.884;20.340;2022-08-01T03:12:34;4.95;;;3.85;;
54795;SDS011;40693;43.884;20.340;2022-08-01T03:15:03;6.82;;;3.25;;
54795;SDS011;40693;43.884;20.340;2022-08-01T03:17:31;5.25;;;3.60;;
54795;SDS011;40693;43.884;20.340;2022-08-01T03:19:58;6.63;;;3.90;;
54795;SDS011;40693;43.884;20.340;2022-08-01T03:22:27;5.05;;;3.33;;
54795;SDS011;40693;43.884;20.340;2022-08-01T03:24:56;6.47;;;4.45;;
54795;SDS011;40693;43.884;20.340;2022-08-01T03:27:24;8.43;;;3.67;;
54795;SDS011;40693;43.884;20.340;2022-08-01T03:29:51;9.38;;;3.85;;
54795;SDS011;40693;43.884;20.340;2022-08-01T03:32:19;8.13;;;3.65;;
54795;SDS011;40693;43.884;20.340;2022-08-01T03:34:47;9.68;;;4.30;;
54795;SDS011;40693;43.884;20.340;2022-08-01T03:37:23;6.72;;;3.65;;
54795;SDS011;40693;43.884;20.340;2022-08-01T03:39:56;11.10;;;3.97;;
54795;SDS011;40693;43.884;20.340;2022-08-01T03:42:39;5.03;;;3.58;;
54795;SDS011;40693;43.884;20.340;2022-08-01T03:45:10;9.02;;;3.90;;
54795;SDS011;40693;43.884;20.340;2022-08-01T03:47:44;5.82;;;3.78;;
54795;SDS011;40693;43.884;20.340;2022-08-01T03:50:13;6.90;;;4.30;;
54795;SDS011;40693;43.884;20.340;2022-08-01T03:52:43;6.65;;;4.63;;
54795;SDS011;40693;43.884;20.340;2022-08-01T03:55:11;5.97;;;4.10;;
54795;SDS011;40693;43.884;20.340;2022-08-01T03:57:41;7.93;;;4.03;;
54795;SDS011;40693;43.884;20.340;2022-08-01T04:00:09;6.00;;;3.75;;
54795;SDS011;40693;43.884;20.340;2022-08-01T04:02:35;9.15;;;3.58;;
54795;SDS011;40693;43.884;20.340;2022-08-01T04:05:02;9.30;;;4.60;;
54795;SDS011;40693;43.884;20.340;2022-08-01T04:07:30;6.55;;;3.80;;
54795;SDS011;40693;43.884;20.340;2022-08-01T04:09:57;8.00;;;4.63;;
54795;SDS011;40693;43.884;20.340;2022-08-01T04:12:23;5.88;;;3.47;;
54795;SDS011;40693;43.884;20.340;2022-08-01T04:14:49;6.43;;;3.92;;
54795;SDS011;40693;43.884;20.340;2022-08-01T04:17:15;5.03;;;2.95;;
54795;SDS011;40693;43.884;20.340;2022-08-01T04:19:42;7.13;;;3.35;;
54795;SDS011;40693;43.884;20.340;2022-08-01T04:22:12;6.82;;;3.55;;
54795;SDS011;40693;43.884;20.340;2022-08-01T04:24:41;11.27;;;4.60;;
54795;SDS011;40693;43.884;20.340;2022-08-01T04:27:11;10.77;;;5.03;;
54795;SDS011;40693;43.884;20.340;2022-08-01T04:29:39;5.75;;;3.38;;
54795;SDS011;40693;43.884;20.340;2022-08-01T04:32:08;4.45;;;3.53;;
54795;SDS011;40693;43.884;20.340;2022-08-01T04:34:38;6.57;;;3.80;;
54795;SDS011;40693;43.884;20.340;2022-08-01T04:37:07;7.55;;;4.00;;
54795;SDS011;40693;43.884;20.340;2022-08-01T04:39:35;5.63;;;3.35;;
54795;SDS011;40693;43.884;20.340;2022-08-01T04:42:02;5.47;;;4.18;;
54795;SDS011;40693;43.884;20.340;2022-08-01T04:44:30;7.88;;;4.32;;
54795;SDS011;40693;43.884;20.340;2022-08-01T04:46:58;5.03;;;3.55;;
54795;SDS011;40693;43.884;20.340;2022-08-01T04:49:26;7.30;;;4.22;;
54795;SDS011;40693;43.884;20.340;2022-08-01T04:51:53;6.72;;;3.80;;
54795;SDS011;40693;43.884;20.340;2022-08-01T04:54:29;7.45;;;3.47;;
54795;SDS011;40693;43.884;20.340;2022-08-01T04:56:59;6.20;;;3.10;;
54795;SDS011;40693;43.884;20.340;2022-08-01T04:59:26;5.30;;;3.75;;
54795;SDS011;40693;43.884;20.340;2022-08-01T05:02:12;5.47;;;3.55;;
54795;SDS011;40693;43.884;20.340;2022-08-01T05:04:43;4.63;;;3.42;;
54795;SDS011;40693;43.884;20.340;2022-08-01T05:07:10;5.10;;;3.35;;
54795;SDS011;40693;43.884;20.340;2022-08-01T05:09:37;6.53;;;3.40;;
54795;SDS011;40693;43.884;20.340;2022-08-01T05:12:04;5.45;;;3.90;;
54795;SDS011;40693;43.884;20.340;2022-08-01T05:14:32;7.45;;;4.03;;
54795;SDS011;40693;43.884;20.340;2022-08-01T05:16:59;6.75;;;4.20;;
54795;SDS011;40693;43.884;20.340;2022-08-01T05:19:28;4.07;;;3.53;;
54795;SDS011;40693;43.884;20.340;2022-08-01T05:22:00;6.68;;;4.53;;
54795;SDS011;40693;43.884;20.340;2022-08-01T05:24:29;7.10;;;3.53;;
54795;SDS011;40693;43.884;20.340;2022-08-01T05:26:56;5.15;;;3.67;;
54795;SDS011;40693;43.884;20.340;2022-08-01T05:29:22;4.93;;;3.15;;
54795;SDS011;40693;43.884;20.340;2022-08-01T05:31:49;8.80;;;3.25;;
54795;SDS011;40693;43.884;20.340;2022-08-01T05:34:15;6.05;;;4.20;;
54795;SDS011;40693;43.884;20.340;2022-08-01T05:36:41;7.32;;;3.65;;
54795;SDS011;40693;43.884;20.340;2022-08-01T05:39:07;6.28;;;4.18;;
54795;SDS011;40693;43.884;20.340;2022-08-01T05:41:33;6.32;;;3.03;;
54795;SDS011;40693;43.884;20.340;2022-08-01T05:43:59;7.68;;;3.53;;
54795;SDS011;40693;43.884;20.340;2022-08-01T05:46:25;4.32;;;3.20;;
54795;SDS011;40693;43.884;20.340;2022-08-01T05:48:50;6.55;;;3.33;;
54795;SDS011;40693;43.884;20.340;2022-08-01T05:51:16;4.43;;;3.25;;
54795;SDS011;40693;43.884;20.340;2022-08-01T05:53:42;9.82;;;3.85;;
54795;SDS011;40693;43.884;20.340;2022-08-01T05:56:08;3.83;;;2.67;;
54795;SDS011;40693;43.884;20.340;2022-08-01T05:58:34;4.07;;;3.08;;
54795;SDS011;40693;43.884;20.340;2022-08-01T06:01:00;4.03;;;3.25;;
54795;SDS011;40693;43.884;20.340;2022-08-01T06:03:25;5.40;;;3.00;;
54795;SDS011;40693;43.884;20.340;2022-08-01T06:05:56;5.35;;;2.88;;
54795;SDS011;40693;43.884;20.340;2022-08-01T06:08:22;7.03;;;3.42;;
54795;SDS011;40693;43.884;20.340;2022-08-01T06:10:48;5.60;;;3.35;;
54795;SDS011;40693;43.884;20.340;2022-08-01T06:13:14;6.60;;;4.28;;
54795;SDS011;40693;43.884;20.340;2022-08-01T06:15:40;6.93;;;4.63;;
54795;SDS011;40693;43.884;20.340;2022-08-01T06:18:05;5.97;;;3.97;;
54795;SDS011;40693;43.884;20.340;2022-08-01T06:20:31;5.95;;;3.25;;
54795;SDS011;40693;43.884;20.340;2022-08-01T06:22:57;5.20;;;3.83;;
54795;SDS011;40693;43.884;20.340;2022-08-01T06:25:23;4.28;;;3.65;;
54795;SDS011;40693;43.884;20.340;2022-08-01T06:27:49;6.97;;;3.08;;
54795;SDS011;40693;43.884;20.340;2022-08-01T06:30:14;7.25;;;2.88;;
54795;SDS011;40693;43.884;20.340;2022-08-01T06:32:40;4.90;;;3.13;;
54795;SDS011;40693;43.884;20.340;2022-08-01T06:35:06;4.70;;;2.90;;
54795;SDS011;40693;43.884;20.340;2022-08-01T06:37:32;4.55;;;2.60;;
54795;SDS011;40693;43.884;20.340;2022-08-01T06:40:04;6.15;;;2.90;;
54795;SDS011;40693;43.884;20.340;2022-08-01T06:42:32;4.43;;;3.17;;
54795;SDS011;40693;43.884;20.340;2022-08-01T06:45:01;6.85;;;3.05;;
54795;SDS011;40693;43.884;20.340;2022-08-01T06:47:31;5.40;;;2.90;;
54795;SDS011;40693;43.884;20.340;2022-08-01T06:49:57;4.88;;;2.67;;
54795;SDS011;40693;43.884;20.340;2022-08-01T06:52:22;5.38;;;3.10;;
54795;SDS011;40693;43.884;20.340;2022-08-01T06:54:48;5.28;;;2.85;;
54795;SDS011;40693;43.884;20.340;2022-08-01T06:57:14;5.60;;;3.22;;
54795;SDS011;40693;43.884;20.340;2022-08-01T06:59:40;3.40;;;2.70;;
54795;SDS011;40693;43.884;20.340;2022-08-01T07:02:05;6.53;;;3.53;;
54795;SDS011;40693;43.884;20.340;2022-08-01T07:04:32;4.03;;;3.00;;
54795;SDS011;40693;43.884;20.340;2022-08-01T07:06:58;3.92;;;2.70;;
54795;SDS011;40693;43.884;20.340;2022-08-01T07:09:24;5.20;;;2.97;;
54795;SDS011;40693;43.884;20.340;2022-08-01T07:11:51;4.57;;;2.83;;
54795;SDS011;40693;43.884;20.340;2022-08-01T07:14:18;5.65;;;2.83;;
54795;SDS011;40693;43.884;20.340;2022-08-01T07:16:44;6.03;;;2.80;;
54795;SDS011;40693;43.884;20.340;2022-08-01T07:19:10;5.38;;;3.35;;
54795;SDS011;40693;43.884;20.340;2022-08-01T07:21:36;7.80;;;2.80;;
54795;SDS011;40693;43.884;20.340;2022-08-01T07:24:03;3.17;;;2.88;;
54795;SDS011;40693;43.884;20.340;2022-08-01T07:26:29;3.33;;;2.55;;
54795;SDS011;40693;43.884;20.340;2022-08-01T07:28:55;5.63;;;3.25;;
54795;SDS011;40693;43.884;20.340;2022-08-01T07:31:21;5.30;;;2.95;;
54795;SDS011;40693;43.884;20.340;2022-08-01T07:33:48;4.28;;;3.13;;
54795;SDS011;40693;43.884;20.340;2022-08-01T07:36:14;6.85;;;2.83;;
54795;SDS011;40693;43.884;20.340;2022-08-01T07:38:41;4.68;;;3.15;;
54795;SDS011;40693;43.884;20.340;2022-08-01T07:41:06;2.75;;;2.40;;
54795;SDS011;40693;43.884;20.340;2022-08-01T07:43:35;4.95;;;3.25;;
54795;SDS011;40693;43.884;20.340;2022-08-01T07:46:01;4.05;;;2.85;;
54795;SDS011;40693;43.884;20.340;2022-08-01T07:48:28;5.53;;;3.67;;
54795;SDS011;40693;43.884;20.340;2022-08-01T07:50:54;5.53;;;3.38;;
54795;SDS011;40693;43.884;20.340;2022-08-01T07:53:20;4.95;;;3.38;;
54795;SDS011;40693;43.884;20.340;2022-08-01T07:55:46;5.03;;;3.65;;
54795;SDS011;40693;43.884;20.340;2022-08-01T07:58:12;6.30;;;3.35;;
54795;SDS011;40693;43.884;20.340;2022-08-01T08:00:39;6.07;;;4.00;;
54795;SDS011;40693;43.884;20.340;2022-08-01T08:03:05;5.75;;;3.28;;
54795;SDS011;40693;43.884;20.340;2022-08-01T08:05:31;4.93;;;3.25;;
54795;SDS011;40693;43.884;20.340;2022-08-01T08:08:06;3.88;;;3.17;;
54795;SDS011;40693;43.884;20.340;2022-08-01T08:10:33;6.97;;;3.20;;
54795;SDS011;40693;43.884;20.340;2022-08-01T08:12:59;4.55;;;3.10;;
54795;SDS011;40693;43.884;20.340;2022-08-01T08:15:26;6.90;;;3.00;;
54795;SDS011;40693;43.884;20.340;2022-08-01T08:17:52;4.43;;;3.08;;
54795;SDS011;40693;43.884;20.340;2022-08-01T08:20:18;4.78;;;3.72;;
54795;SDS011;40693;43.884;20.340;2022-08-01T08:22:49;4.53;;;3.35;;
54795;SDS011;40693;43.884;20.340;2022-08-01T08:25:16;5.10;;;3.20;;
54795;SDS011;40693;43.884;20.340;2022-08-01T08:27:44;3.90;;;3.03;;
54795;SDS011;40693;43.884;20.340;2022-08-01T08:30:10;5.18;;;3.22;;
54795;SDS011;40693;43.884;20.340;2022-08-01T08:32:36;5.53;;;3.58;;
54795;SDS011;40693;43.884;20.340;2022-08-01T08:35:02;5.22;;;3.33;;
54795;SDS011;40693;43.884;20.340;2022-08-01T08:37:29;5.20;;;3.15;;
54795;SDS011;40693;43.884;20.340;2022-08-01T08:39:55;7.60;;;3.83;;
54795;SDS011;40693;43.884;20.340;2022-08-01T08:42:21;7.30;;;4.25;;
54795;SDS011;40693;43.884;20.340;2022-08-01T08:44:48;6.05;;;3.00;;
54795;SDS011;40693;43.884;20.340;2022-08-01T08:47:13;5.43;;;3.15;;
54795;SDS011;40693;43.884;20.340;2022-08-01T08:49:41;3.10;;;2.80;;
54795;SDS011;40693;43.884;20.340;2022-08-01T08:52:08;4.53;;;3.45;;
54795;SDS011;40693;43.884;20.340;2022-08-01T08:54:35;5.20;;;3.22;;
54795;SDS011;40693;43.884;20.340;2022-08-01T08:57:03;4.45;;;2.85;;
54795;SDS011;40693;43.884;20.340;2022-08-01T08:59:29;4.82;;;2.95;;
54795;SDS011;40693;43.884;20.340;2022-08-01T09:01:56;6.47;;;3.05;;
54795;SDS011;40693;43.884;20.340;2022-08-01T09:04:23;5.82;;;2.72;;
54795;SDS011;40693;43.884;20.340;2022-08-01T09:06:49;4.28;;;2.90;;
54795;SDS011;40693;43.884;20.340;2022-08-01T09:09:16;4.20;;;2.83;;
54795;SDS011;40693;43.884;20.340;2022-08-01T09:11:42;4.38;;;3.40;;
54795;SDS011;40693;43.884;20.340;2022-08-01T09:14:09;3.72;;;2.85;;
54795;SDS011;40693;43.884;20.340;2022-08-01T09:16:36;2.75;;;2.53;;
54795;SDS011;40693;43.884;20.340;2022-08-01T09:19:06;7.43;;;3.50;;
54795;SDS011;40693;43.884;20.340;2022-08-01T09:21:33;5.18;;;2.85;;
54795;SDS011;40693;43.884;20.340;2022-08-01T09:23:59;3.65;;;3.22;;
54795;SDS011;40693;43.884;20.340;2022-08-01T09:26:29;3.90;;;3.00;;
54795;SDS011;40693;43.884;20.340;2022-08-01T09:28:56;3.75;;;2.95;;
54795;SDS011;40693;43.884;20.340;2022-08-01T09:31:24;6.60;;;3.22;;
54795;SDS011;40693;43.884;20.340;2022-08-01T09:33:54;5.03;;;2.90;;
54795;SDS011;40693;43.884;20.340;2022-08-01T09:36:25;6.35;;;3.20;;
54795;SDS011;40693;43.884;20.340;2022-08-01T09:39:11;3.60;;;2.80;;
54795;SDS011;40693;43.884;20.340;2022-08-01T09:41:38;6.85;;;2.70;;
54795;SDS011;40693;43.884;20.340;2022-08-01T09:44:04;4.18;;;3.33;;
54795;SDS011;40693;43.884;20.340;2022-08-01T09:46:30;4.00;;;2.78;;
54795;SDS011;40693;43.884;20.340;2022-08-01T09:48:56;7.05;;;4.00;;
54795;SDS011;40693;43.884;20.340;2022-08-01T09:51:30;5.50;;;2.90;;
54795;SDS011;40693;43.884;20.340;2022-08-01T09:54:01;5.38;;;3.38;;
54795;SDS011;40693;43.884;20.340;2022-08-01T09:56:39;6.50;;;3.08;;
54795;SDS011;40693;43.884;20.340;2022-08-01T09:59:10;3.95;;;3.13;;
54795;SDS011;40693;43.884;20.340;2022-08-01T10:01:46;5.55;;;2.80;;
54795;SDS011;40693;43.884;20.340;2022-08-01T10:06:45;3.05;;;2.60;;
54795;SDS011;40693;43.884;20.340;2022-08-01T10:09:26;3.70;;;3.25;;
54795;SDS011;40693;43.884;20.340;2022-08-01T10:11:56;5.07;;;3.65;;
54795;SDS011;40693;43.884;20.340;2022-08-01T10:14:25;5.68;;;3.28;;
54795;SDS011;40693;43.884;20.340;2022-08-01T10:16:58;8.65;;;3.80;;
54795;SDS011;40693;43.884;20.340;2022-08-01T10:19:26;6.00;;;3.50;;
54795;SDS011;40693;43.884;20.340;2022-08-01T10:21:54;5.38;;;3.22;;
54795;SDS011;40693;43.884;20.340;2022-08-01T10:24:21;3.50;;;3.20;;
54795;SDS011;40693;43.884;20.340;2022-08-01T10:26:57;4.85;;;4.07;;
54795;SDS011;40693;43.884;20.340;2022-08-01T10:29:28;3.42;;;2.92;;
54795;SDS011;40693;43.884;20.340;2022-08-01T10:32:02;5.90;;;2.90;;
54795;SDS011;40693;43.884;20.340;2022-08-01T10:34:29;6.88;;;3.13;;
54795;SDS011;40693;43.884;20.340;2022-08-01T10:36:56;4.00;;;3.15;;
54795;SDS011;40693;43.884;20.340;2022-08-01T10:39:22;9.13;;;3.65;;
54795;SDS011;40693;43.884;20.340;2022-08-01T10:41:50;7.10;;;3.47;;
54795;SDS011;40693;43.884;20.340;2022-08-01T10:44:15;4.10;;;2.95;;
54795;SDS011;40693;43.884;20.340;2022-08-01T10:46:45;4.30;;;2.80;;
54795;SDS011;40693;43.884;20.340;2022-08-01T10:49:16;5.22;;;3.08;;
54795;SDS011;40693;43.884;20.340;2022-08-01T10:51:44;6.53;;;3.33;;
54795;SDS011;40693;43.884;20.340;2022-08-01T10:54:12;4.00;;;3.22;;
54795;SDS011;40693;43.884;20.340;2022-08-01T10:56:44;4.22;;;3.45;;
54795;SDS011;40693;43.884;20.340;2022-08-01T10:59:21;4.93;;;3.20;;
54795;SDS011;40693;43.884;20.340;2022-08-01T11:02:02;3.50;;;2.55;;
54795;SDS011;40693;43.884;20.340;2022-08-01T11:04:51;3.38;;;2.95;;
54795;SDS011;40693;43.884;20.340;2022-08-01T11:07:20;4.13;;;2.50;;
54795;SDS011;40693;43.884;20.340;2022-08-01T11:09:50;8.02;;;2.95;;
54795;SDS011;40693;43.884;20.340;2022-08-01T11:12:39;4.50;;;3.30;;
54795;SDS011;40693;43.884;20.340;2022-08-01T11:17:33;4.25;;;3.17;;
54795;SDS011;40693;43.884;20.340;2022-08-01T11:20:09;6.22;;;3.05;;
54795;SDS011;40693;43.884;20.340;2022-08-01T11:25:24;4.18;;;2.70;;
54795;SDS011;40693;43.884;20.340;2022-08-01T11:30:45;4.80;;;2.97;;
54795;SDS011;40693;43.884;20.340;2022-08-01T11:33:12;5.57;;;3.15;;
54795;SDS011;40693;43.884;20.340;2022-08-01T11:38:39;5.47;;;3.25;;
54795;SDS011;40693;43.884;20.340;2022-08-01T11:41:13;4.40;;;2.88;;
54795;SDS011;40693;43.884;20.340;2022-08-01T11:43:56;3.90;;;2.70;;
54795;SDS011;40693;43.884;20.340;2022-08-01T11:54:30;3.88;;;2.25;;
54795;SDS011;40693;43.884;20.340;2022-08-01T11:57:03;4.72;;;2.90;;
54795;SDS011;40693;43.884;20.340;2022-08-01T11:59:37;3.85;;;2.45;;
54795;SDS011;40693;43.884;20.340;2022-08-01T12:02:08;3.60;;;2.80;;
54795;SDS011;40693;43.884;20.340;2022-08-01T12:05:04;4.70;;;2.55;;
54795;SDS011;40693;43.884;20.340;2022-08-01T12:07:33;3.30;;;2.33;;
54795;SDS011;40693;43.884;20.340;2022-08-01T12:10:10;3.65;;;2.50;;
54795;SDS011;40693;43.884;20.340;2022-08-01T12:12:36;3.97;;;2.55;;
54795;SDS011;40693;43.884;20.340;2022-08-01T12:15:09;8.57;;;2.88;;
54795;SDS011;40693;43.884;20.340;2022-08-01T12:17:37;4.07;;;2.38;;
54795;SDS011;40693;43.884;20.340;2022-08-01T12:20:06;3.85;;;2.47;;
54795;SDS011;40693;43.884;20.340;2022-08-01T12:22:33;5.20;;;3.17;;
54795;SDS011;40693;43.884;20.340;2022-08-01T12:25:06;4.10;;;2.60;;
54795;SDS011;40693;43.884;20.340;2022-08-01T12:27:32;3.58;;;2.60;;
54795;SDS011;40693;43.884;20.340;2022-08-01T12:29:59;10.43;;;2.88;;
54795;SDS011;40693;43.884;20.340;2022-08-01T12:32:26;5.95;;;2.97;;
54795;SDS011;40693;43.884;20.340;2022-08-01T12:34:56;6.10;;;2.50;;
54795;SDS011;40693;43.884;20.340;2022-08-01T12:37:38;3.10;;;2.50;;
54795;SDS011;40693;43.884;20.340;2022-08-01T12:43:05;5.63;;;2.67;;
54795;SDS011;40693;43.884;20.340;2022-08-01T12:45:36;4.00;;;2.17;;
54795;SDS011;40693;43.884;20.340;2022-08-01T12:48:10;3.28;;;2.25;;
54795;SDS011;40693;43.884;20.340;2022-08-01T12:50:41;4.30;;;2.45;;
54795;SDS011;40693;43.884;20.340;2022-08-01T12:53:17;2.97;;;1.98;;
54795;SDS011;40693;43.884;20.340;2022-08-01T12:55:46;3.67;;;2.30;;
54795;SDS011;40693;43.884;20.340;2022-08-01T12:58:15;3.83;;;2.75;;
54795;SDS011;40693;43.884;20.340;2022-08-01T13:00:42;5.22;;;2.55;;
54795;SDS011;40693;43.884;20.340;2022-08-01T13:03:13;4.53;;;2.47;;
54795;SDS011;40693;43.884;20.340;2022-08-01T13:08:14;4.38;;;2.80;;
54795;SDS011;40693;43.884;20.340;2022-08-01T13:10:44;5.63;;;3.00;;
54795;SDS011;40693;43.884;20.340;2022-08-01T13:13:11;6.50;;;2.38;;
54795;SDS011;40693;43.884;20.340;2022-08-01T13:15:38;4.35;;;2.50;;
54795;SDS011;40693;43.884;20.340;2022-08-01T13:18:28;4.75;;;3.55;;
54795;SDS011;40693;43.884;20.340;2022-08-01T13:23:37;4.88;;;2.78;;
54795;SDS011;40693;43.884;20.340;2022-08-01T13:26:05;5.18;;;2.60;;
54795;SDS011;40693;43.884;20.340;2022-08-01T13:28:31;5.47;;;2.72;;
54795;SDS011;40693;43.884;20.340;2022-08-01T13:31:05;3.50;;;2.47;;
54795;SDS011;40693;43.884;20.340;2022-08-01T13:33:45;4.47;;;2.40;;
54795;SDS011;40693;43.884;20.340;2022-08-01T13:36:12;4.07;;;2.42;;
54795;SDS011;40693;43.884;20.340;2022-08-01T13:38:39;3.85;;;2.75;;
54795;SDS011;40693;43.884;20.340;2022-08-01T13:41:26;2.80;;;2.38;;
54795;SDS011;40693;43.884;20.340;2022-08-01T13:43:52;3.13;;;2.28;;
54795;SDS011;40693;43.884;20.340;2022-08-01T13:46:18;5.80;;;2.70;;
54795;SDS011;40693;43.884;20.340;2022-08-01T13:48:44;4.53;;;2.63;;
54795;SDS011;40693;43.884;20.340;2022-08-01T13:51:10;4.80;;;2.70;;
54795;SDS011;40693;43.884;20.340;2022-08-01T13:53:35;3.83;;;2.38;;
54795;SDS011;40693;43.884;20.340;2022-08-01T13:56:01;3.60;;;2.10;;
54795;SDS011;40693;43.884;20.340;2022-08-01T13:58:28;3.53;;;2.75;;
54795;SDS011;40693;43.884;20.340;2022-08-01T14:00:54;6.53;;;2.88;;
54795;SDS011;40693;43.884;20.340;2022-08-01T14:03:20;4.93;;;2.25;;
54795;SDS011;40693;43.884;20.340;2022-08-01T14:05:47;3.22;;;2.13;;
54795;SDS011;40693;43.884;20.340;2022-08-01T14:08:13;11.70;;;3.03;;
54795;SDS011;40693;43.884;20.340;2022-08-01T14:10:39;4.13;;;2.47;;
54795;SDS011;40693;43.884;20.340;2022-08-01T14:13:05;3.17;;;2.53;;
54795;SDS011;40693;43.884;20.340;2022-08-01T14:15:31;3.00;;;2.33;;
54795;SDS011;40693;43.884;20.340;2022-08-01T14:17:57;3.55;;;1.88;;
54795;SDS011;40693;43.884;20.340;2022-08-01T14:20:24;4.25;;;2.42;;
54795;SDS011;40693;43.884;20.340;2022-08-01T14:22:50;2.90;;;2.25;;
54795;SDS011;40693;43.884;20.340;2022-08-01T14:25:16;4.05;;;2.40;;
54795;SDS011;40693;43.884;20.340;2022-08-01T14:27:43;5.50;;;2.97;;
54795;SDS011;40693;43.884;20.340;2022-08-01T14:30:09;5.55;;;3.13;;
54795;SDS011;40693;43.884;20.340;2022-08-01T14:32:36;6.45;;;3.13;;
54795;SDS011;40693;43.884;20.340;2022-08-01T14:35:02;3.72;;;2.30;;
54795;SDS011;40693;43.884;20.340;2022-08-01T14:37:29;3.13;;;2.25;;
54795;SDS011;40693;43.884;20.340;2022-08-01T14:39:56;8.63;;;2.72;;
54795;SDS011;40693;43.884;20.340;2022-08-01T14:42:23;5.53;;;2.67;;
54795;SDS011;40693;43.884;20.340;2022-08-01T14:44:49;7.72;;;2.72;;
54795;SDS011;40693;43.884;20.340;2022-08-01T14:47:14;3.47;;;2.72;;
54795;SDS011;40693;43.884;20.340;2022-08-01T14:49:40;2.80;;;2.42;;
54795;SDS011;40693;43.884;20.340;2022-08-01T14:52:06;5.55;;;2.55;;
54795;SDS011;40693;43.884;20.340;2022-08-01T14:54:32;5.10;;;2.88;;
54795;SDS011;40693;43.884;20.340;2022-08-01T14:56:57;3.10;;;2.13;;
54795;SDS011;40693;43.884;20.340;2022-08-01T14:59:23;9.10;;;3.53;;
54795;SDS011;40693;43.884;20.340;2022-08-01T15:01:49;3.97;;;2.53;;
54795;SDS011;40693;43.884;20.340;2022-08-01T15:04:15;4.43;;;2.92;;
54795;SDS011;40693;43.884;20.340;2022-08-01T15:06:42;3.88;;;2.70;;
54795;SDS011;40693;43.884;20.340;2022-08-01T15:09:08;3.58;;;2.78;;
54795;SDS011;40693;43.884;20.340;2022-08-01T15:11:35;5.50;;;2.75;;
54795;SDS011;40693;43.884;20.340;2022-08-01T15:14:01;11.20;;;3.25;;
54795;SDS011;40693;43.884;20.340;2022-08-01T15:16:46;3.78;;;2.95;;
54795;SDS011;40693;43.884;20.340;2022-08-01T15:19:12;4.47;;;2.50;;
54795;SDS011;40693;43.884;20.340;2022-08-01T15:21:38;5.90;;;3.63;;
54795;SDS011;40693;43.884;20.340;2022-08-01T15:24:03;3.38;;;2.35;;
54795;SDS011;40693;43.884;20.340;2022-08-01T15:26:30;3.42;;;2.50;;
54795;SDS011;40693;43.884;20.340;2022-08-01T15:28:56;3.08;;;2.45;;